createdAt,value
2018-09-25T00:00:25.116Z,5.07
2018-09-25T00:01:25.152Z,5.06
2018-09-25T00:02:25.194Z,5.07
2018-09-25T00:03:25.227Z,5.07
2018-09-25T00:04:25.264Z,5.07
2018-09-25T00:05:25.301Z,5.03
2018-09-25T00:06:25.347Z,5.06
2018-09-25T00:07:25.375Z,5.03
2018-09-25T00:08:25.412Z,5.03
2018-09-25T00:09:25.449Z,4.92
2018-09-25T00:10:25.528Z,4.92
2018-09-25T00:11:25.523Z,4.97
2018-09-25T00:12:25.560Z,5.02
2018-09-25T00:13:25.597Z,5.04
2018-09-25T00:14:25.635Z,5.03
2018-09-25T00:15:25.670Z,4.97
2018-09-25T00:16:25.711Z,4.91
2018-09-25T00:17:25.748Z,4.91
2018-09-25T00:18:25.782Z,4.88
2018-09-25T00:19:25.820Z,4.82
2018-09-25T00:20:25.855Z,4.91
2018-09-25T00:21:25.893Z,4.91
2018-09-25T00:22:25.929Z,4.92
2018-09-25T00:23:25.968Z,4.85
2018-09-25T00:24:26.003Z,4.88
2018-09-25T00:25:26.040Z,4.78
2018-09-25T00:26:26.079Z,4.78
2018-09-25T00:27:26.115Z,4.80
2018-09-25T00:28:26.152Z,4.80
2018-09-25T00:29:26.187Z,4.78
2018-09-25T00:30:26.228Z,4.82
2018-09-25T00:31:26.262Z,4.84
2018-09-25T00:32:26.301Z,4.75
2018-09-25T00:33:26.336Z,4.77
2018-09-25T00:34:26.375Z,4.69
2018-09-25T00:35:26.408Z,4.72
2018-09-25T00:36:26.446Z,4.67
2018-09-25T00:37:26.482Z,4.75
2018-09-25T00:38:26.520Z,4.72
2018-09-25T00:39:26.557Z,4.70
2018-09-25T00:40:26.596Z,4.70
2018-09-25T00:41:26.652Z,4.72
2018-09-25T00:42:26.668Z,4.67
2018-09-25T00:43:26.704Z,4.67
2018-09-25T00:44:26.745Z,4.70
2018-09-25T00:45:26.779Z,4.65
2018-09-25T00:46:26.817Z,4.70
2018-09-25T00:47:26.856Z,4.70
2018-09-25T00:48:26.890Z,4.70
2018-09-25T00:49:26.927Z,4.72
2018-09-25T00:50:26.962Z,4.73
2018-09-25T00:51:27.002Z,4.69
2018-09-25T00:52:27.037Z,4.73
2018-09-25T00:53:27.074Z,4.75
2018-09-25T00:54:27.110Z,4.63
2018-09-25T00:55:27.148Z,4.73
2018-09-25T00:56:27.186Z,4.72
2018-09-25T00:57:27.220Z,4.70
2018-09-25T00:58:27.257Z,4.72
2018-09-25T00:59:27.295Z,4.70
2018-09-25T01:00:27.331Z,4.72
2018-09-25T01:01:27.368Z,4.75
2018-09-25T01:02:27.404Z,4.72
2018-09-25T01:03:27.441Z,4.72
2018-09-25T01:04:27.478Z,4.67
2018-09-25T01:05:27.514Z,4.63
2018-09-25T01:06:27.553Z,4.70
2018-09-25T01:07:27.589Z,4.72
2018-09-25T01:08:27.627Z,4.69
2018-09-25T01:09:27.662Z,4.73
2018-09-25T01:10:27.699Z,4.73
2018-09-25T01:11:27.736Z,4.70
2018-09-25T01:12:27.772Z,4.77
2018-09-25T01:13:27.817Z,4.75
2018-09-25T01:14:27.848Z,4.69
2018-09-25T01:15:27.883Z,4.63
2018-09-25T01:16:27.928Z,4.59
2018-09-25T01:17:27.956Z,4.58
2018-09-25T01:18:27.994Z,4.58
2018-09-25T01:19:28.031Z,4.60
2018-09-25T01:20:28.068Z,4.52
2018-09-25T01:21:28.104Z,4.55
2018-09-25T01:22:28.140Z,4.50
2018-09-25T01:23:28.178Z,4.60
2018-09-25T01:24:28.215Z,4.50
2018-09-25T01:25:28.251Z,4.55
2018-09-25T01:26:28.287Z,4.50
2018-09-25T01:27:28.327Z,4.51
2018-09-25T01:28:28.369Z,4.52
2018-09-25T01:29:28.401Z,4.63
2018-09-25T01:30:28.438Z,4.51
2018-09-25T01:31:28.472Z,4.52
2018-09-25T01:32:28.515Z,4.52
2018-09-25T01:33:28.545Z,4.55
2018-09-25T01:34:28.589Z,4.52
2018-09-25T01:35:28.620Z,4.52
2018-09-25T01:36:28.663Z,4.51
2018-09-25T01:37:28.696Z,4.45
2018-09-25T01:38:28.732Z,4.50
2018-09-25T01:39:28.767Z,4.50
2018-09-25T01:40:28.804Z,4.47
2018-09-25T01:41:28.839Z,4.41
2018-09-25T01:42:28.876Z,4.42
2018-09-25T01:43:28.913Z,4.50
2018-09-25T01:44:28.952Z,4.42
2018-09-25T01:45:28.987Z,4.48
2018-09-25T01:46:29.125Z,4.51
2018-09-25T01:47:29.062Z,4.42
2018-09-25T01:48:29.098Z,4.40
2018-09-25T01:49:29.135Z,4.42
2018-09-25T01:50:29.173Z,4.36
2018-09-25T01:51:29.208Z,4.41
2018-09-25T01:52:29.247Z,4.42
2018-09-25T01:53:29.285Z,4.41
2018-09-25T01:54:29.320Z,4.42
2018-09-25T01:55:29.357Z,4.45
2018-09-25T01:56:29.392Z,4.48
2018-09-25T01:57:29.430Z,4.47
2018-09-25T01:58:29.466Z,4.36
2018-09-25T01:59:29.504Z,4.32
2018-09-25T02:00:29.543Z,4.40
2018-09-25T02:01:29.575Z,4.42
2018-09-25T02:02:29.622Z,4.40
2018-09-25T02:03:29.651Z,4.36
2018-09-25T02:04:29.687Z,4.34
2018-09-25T02:05:29.723Z,4.40
2018-09-25T02:06:29.760Z,4.36
2018-09-25T02:07:29.799Z,4.37
2018-09-25T02:08:29.835Z,4.30
2018-09-25T02:09:29.869Z,4.27
2018-09-25T02:10:29.964Z,4.27
2018-09-25T02:11:29.951Z,4.34
2018-09-25T02:12:29.980Z,4.36
2018-09-25T02:13:30.024Z,4.33
2018-09-25T02:14:30.054Z,4.33
2018-09-25T02:15:30.099Z,4.26
2018-09-25T02:16:30.128Z,4.24
2018-09-25T02:17:30.164Z,4.26
2018-09-25T02:18:30.200Z,4.22
2018-09-25T02:19:30.239Z,4.16
2018-09-25T02:20:30.276Z,4.16
2018-09-25T02:21:30.315Z,4.26
2018-09-25T02:22:30.348Z,4.20
2018-09-25T02:23:30.384Z,4.29
2018-09-25T02:24:30.423Z,4.20
2018-09-25T02:25:30.466Z,4.20
2018-09-25T02:26:30.496Z,4.08
2018-09-25T02:27:30.533Z,4.09
2018-09-25T02:28:30.569Z,4.18
2018-09-25T02:29:30.607Z,4.12
2018-09-25T02:30:30.643Z,4.05
2018-09-25T02:31:30.684Z,4.14
2018-09-25T02:32:30.718Z,4.02
2018-09-25T02:33:30.755Z,4.02
2018-09-25T02:34:30.792Z,4.08
2018-09-25T02:35:30.827Z,4.08
2018-09-25T02:36:30.863Z,4.04
2018-09-25T02:37:30.901Z,4.09
2018-09-25T02:38:30.939Z,3.97
2018-09-25T02:39:30.976Z,4.02
2018-09-25T02:40:31.010Z,4.05
2018-09-25T02:41:31.047Z,4.02
2018-09-25T02:42:31.093Z,4.05
2018-09-25T02:43:31.136Z,4.00
2018-09-25T02:44:31.159Z,4.02
2018-09-25T02:45:31.201Z,4.04
2018-09-25T02:46:31.231Z,4.05
2018-09-25T02:47:31.266Z,4.05
2018-09-25T02:48:31.307Z,4.05
2018-09-25T02:49:31.341Z,4.06
2018-09-25T02:50:31.382Z,4.04
2018-09-25T02:51:31.415Z,4.02
2018-09-25T02:52:31.451Z,3.97
2018-09-25T02:53:31.488Z,4.05
2018-09-25T02:54:31.525Z,4.05
2018-09-25T02:55:31.570Z,3.98
2018-09-25T02:56:31.600Z,4.04
2018-09-25T02:57:31.637Z,4.11
2018-09-25T02:58:31.673Z,4.02
2018-09-25T02:59:31.708Z,4.04
2018-09-25T03:00:31.848Z,4.04
2018-09-25T03:01:31.781Z,4.09
2018-09-25T03:02:31.820Z,4.05
2018-09-25T03:03:31.855Z,4.05
2018-09-25T03:04:31.893Z,4.02
2018-09-25T03:05:31.936Z,4.00
2018-09-25T03:06:31.967Z,3.98
2018-09-25T03:07:32.004Z,4.02
2018-09-25T03:08:32.047Z,3.90
2018-09-25T03:09:32.078Z,4.00
2018-09-25T03:10:32.111Z,3.87
2018-09-25T03:11:32.156Z,3.87
2018-09-25T03:12:32.188Z,3.86
2018-09-25T03:13:32.221Z,3.84
2018-09-25T03:14:32.259Z,3.78
2018-09-25T03:15:32.296Z,3.83
2018-09-25T03:16:32.332Z,3.72
2018-09-25T03:17:32.383Z,3.79
2018-09-25T03:18:32.411Z,3.78
2018-09-25T03:19:32.443Z,3.78
2018-09-25T03:20:32.480Z,3.76
2018-09-25T03:21:32.515Z,3.78
2018-09-25T03:22:32.555Z,3.79
2018-09-25T03:23:32.588Z,3.79
2018-09-25T03:24:32.627Z,3.79
2018-09-25T03:25:32.663Z,3.80
2018-09-25T03:26:32.698Z,3.80
2018-09-25T03:27:32.735Z,3.76
2018-09-25T03:28:32.772Z,3.90
2018-09-25T03:29:32.808Z,3.91
2018-09-25T03:30:32.847Z,3.88
2018-09-25T03:31:32.883Z,3.97
2018-09-25T03:32:32.920Z,3.97
2018-09-25T03:33:32.964Z,4.09
2018-09-25T03:34:32.992Z,4.02
2018-09-25T03:35:33.031Z,4.11
2018-09-25T03:36:33.067Z,4.15
2018-09-25T03:37:33.102Z,4.06
2018-09-25T03:38:33.152Z,4.20
2018-09-25T03:39:33.180Z,4.20
2018-09-25T03:40:33.231Z,4.24
2018-09-25T03:41:33.249Z,4.26
2018-09-25T03:42:33.286Z,4.40
2018-09-25T03:43:33.324Z,4.44
2018-09-25T03:44:33.361Z,4.45
2018-09-25T03:45:33.396Z,4.58
2018-09-25T03:46:33.434Z,4.54
2018-09-25T03:47:33.470Z,4.63
2018-09-25T03:48:33.509Z,4.59
2018-09-25T03:49:33.544Z,4.60
2018-09-25T03:50:33.581Z,4.65
2018-09-25T03:51:33.618Z,4.67
2018-09-25T03:52:33.655Z,4.72
2018-09-25T03:53:33.692Z,4.70
2018-09-25T03:54:33.731Z,4.77
2018-09-25T03:55:33.768Z,4.85
2018-09-25T03:56:33.802Z,4.78
2018-09-25T03:57:33.841Z,4.91
2018-09-25T03:58:33.876Z,4.94
2018-09-25T03:59:33.958Z,4.97
2018-09-25T04:00:33.951Z,5.04
2018-09-25T04:01:33.990Z,5.06
2018-09-25T04:02:34.024Z,5.12
2018-09-25T04:03:34.061Z,5.12
2018-09-25T04:04:34.097Z,5.18
2018-09-25T04:05:34.135Z,5.12
2018-09-25T04:06:34.171Z,5.21
2018-09-25T04:07:34.209Z,5.28
2018-09-25T04:08:34.244Z,5.24
2018-09-25T04:09:34.287Z,5.24
2018-09-25T04:10:34.318Z,5.28
2018-09-25T04:11:34.356Z,5.38
2018-09-25T04:12:34.393Z,5.36
2018-09-25T04:13:34.430Z,5.40
2018-09-25T04:14:34.469Z,5.40
2018-09-25T04:15:34.507Z,5.43
2018-09-25T04:16:34.544Z,5.42
2018-09-25T04:17:34.577Z,5.51
2018-09-25T04:18:34.614Z,5.60
2018-09-25T04:19:34.657Z,5.60
2018-09-25T04:20:34.688Z,5.61
2018-09-25T04:21:34.787Z,5.48
2018-09-25T04:22:34.762Z,5.65
2018-09-25T04:23:34.801Z,5.58
2018-09-25T04:24:34.837Z,5.60
2018-09-25T04:25:34.872Z,5.60
2018-09-25T04:26:34.910Z,5.67
2018-09-25T04:27:34.948Z,5.65
2018-09-25T04:28:35.080Z,5.67
2018-09-25T04:29:35.023Z,5.72
2018-09-25T04:30:35.058Z,5.67
2018-09-25T04:31:35.113Z,5.78
2018-09-25T04:32:35.142Z,5.74
2018-09-25T04:33:35.177Z,5.78
2018-09-25T04:34:35.208Z,5.76
2018-09-25T04:35:35.245Z,5.78
2018-09-25T04:36:35.282Z,5.82
2018-09-25T04:37:35.327Z,5.81
2018-09-25T04:38:35.355Z,5.83
2018-09-25T04:39:35.394Z,5.82
2018-09-25T04:40:35.430Z,5.89
2018-09-25T04:41:35.468Z,5.81
2018-09-25T04:42:35.507Z,5.93
2018-09-25T04:43:35.542Z,5.82
2018-09-25T04:44:35.580Z,5.85
2018-09-25T04:45:35.616Z,5.90
2018-09-25T04:46:35.660Z,5.85
2018-09-25T04:47:35.690Z,5.79
2018-09-25T04:48:35.729Z,5.79
2018-09-25T04:49:35.762Z,5.78
2018-09-25T04:50:35.801Z,5.83
2018-09-25T04:51:35.839Z,5.85
2018-09-25T04:52:35.875Z,5.76
2018-09-25T04:53:35.920Z,5.78
2018-09-25T04:54:35.951Z,5.78
2018-09-25T04:55:35.988Z,5.79
2018-09-25T04:56:36.024Z,5.83
2018-09-25T04:57:36.062Z,5.83
2018-09-25T04:58:36.098Z,5.81
2018-09-25T04:59:36.140Z,5.89
2018-09-25T05:00:36.174Z,5.82
2018-09-25T05:01:36.209Z,5.83
2018-09-25T05:02:36.247Z,5.83
2018-09-25T05:03:36.284Z,5.83
2018-09-25T05:04:36.333Z,5.85
2018-09-25T05:05:36.360Z,5.83
2018-09-25T05:06:36.444Z,5.90
2018-09-25T05:07:36.436Z,5.86
2018-09-25T05:08:36.470Z,5.89
2018-09-25T05:09:36.508Z,5.86
2018-09-25T05:10:36.544Z,5.81
2018-09-25T05:11:36.583Z,5.81
2018-09-25T05:12:36.623Z,5.86
2018-09-25T05:13:36.664Z,5.89
2018-09-25T05:14:36.756Z,5.86
2018-09-25T05:15:36.736Z,5.99
2018-09-25T05:16:36.818Z,5.89
2018-09-25T05:17:36.806Z,5.90
2018-09-25T05:18:36.841Z,5.89
2018-09-25T05:19:36.879Z,5.90
2018-09-25T05:20:36.919Z,5.89
2018-09-25T05:21:36.953Z,6.00
2018-09-25T05:22:36.989Z,5.99
2018-09-25T05:23:37.028Z,5.96
2018-09-25T05:24:37.065Z,5.90
2018-09-25T05:25:37.101Z,6.03
2018-09-25T05:26:37.138Z,5.97
2018-09-25T05:27:37.176Z,5.94
2018-09-25T05:28:37.217Z,6.01
2018-09-25T05:29:37.253Z,5.97
2018-09-25T05:30:37.286Z,6.01
2018-09-25T05:31:37.324Z,5.97
2018-09-25T05:32:37.362Z,5.99
2018-09-25T05:33:37.397Z,6.03
2018-09-25T05:34:37.436Z,6.00
2018-09-25T05:35:37.474Z,6.08
2018-09-25T05:36:37.512Z,5.97
2018-09-25T05:37:37.548Z,6.08
2018-09-25T05:38:37.585Z,6.09
2018-09-25T05:39:37.624Z,5.94
2018-09-25T05:40:37.660Z,6.06
2018-09-25T05:41:37.696Z,6.01
2018-09-25T05:42:37.786Z,6.00
2018-09-25T05:43:37.772Z,6.03
2018-09-25T05:44:37.813Z,6.15
2018-09-25T05:45:37.846Z,6.09
2018-09-25T05:46:37.885Z,6.15
2018-09-25T05:47:37.920Z,6.09
2018-09-25T05:48:37.975Z,6.09
2018-09-25T05:49:37.997Z,6.09
2018-09-25T05:50:38.034Z,6.12
2018-09-25T05:51:38.073Z,6.11
2018-09-25T05:52:38.110Z,6.18
2018-09-25T05:53:38.145Z,6.21
2018-09-25T05:54:38.184Z,6.19
2018-09-25T05:55:38.309Z,6.34
2018-09-25T05:56:38.259Z,6.27
2018-09-25T05:57:38.298Z,6.34
2018-09-25T05:58:38.340Z,6.36
2018-09-25T05:59:38.471Z,6.34
2018-09-25T06:00:38.408Z,6.34
2018-09-25T06:01:38.446Z,6.34
2018-09-25T06:02:38.482Z,6.33
2018-09-25T06:03:38.519Z,6.28
2018-09-25T06:04:38.569Z,6.34
2018-09-25T06:05:38.595Z,6.21
2018-09-25T06:06:38.635Z,6.33
2018-09-25T06:07:38.670Z,6.37
2018-09-25T06:08:38.716Z,6.37
2018-09-25T06:09:38.852Z,6.34
2018-09-25T06:10:38.782Z,6.19
2018-09-25T06:11:38.820Z,6.17
2018-09-25T06:12:38.857Z,6.30
2018-09-25T06:13:38.893Z,6.34
2018-09-25T06:14:38.931Z,6.36
2018-09-25T06:15:38.997Z,6.51
2018-09-25T06:16:39.009Z,6.51
2018-09-25T06:17:39.047Z,6.48
2018-09-25T06:18:39.090Z,6.48
2018-09-25T06:19:39.119Z,6.54
2018-09-25T06:20:39.157Z,6.58
2018-09-25T06:21:39.195Z,6.52
2018-09-25T06:22:39.233Z,6.62
2018-09-25T06:23:39.269Z,6.52
2018-09-25T06:24:39.307Z,6.62
2018-09-25T06:25:39.348Z,6.62
2018-09-25T06:26:39.387Z,6.66
2018-09-25T06:27:39.422Z,6.73
2018-09-25T06:28:39.505Z,6.66
2018-09-25T06:29:39.490Z,6.67
2018-09-25T06:30:39.531Z,6.71
2018-09-25T06:31:39.567Z,6.74
2018-09-25T06:32:39.605Z,6.76
2018-09-25T06:33:39.642Z,6.62
2018-09-25T06:34:39.714Z,6.70
2018-09-25T06:35:39.717Z,6.74
2018-09-25T06:36:39.756Z,6.77
2018-09-25T06:37:39.793Z,6.74
2018-09-25T06:38:39.840Z,6.76
2018-09-25T06:39:39.868Z,6.87
2018-09-25T06:40:39.948Z,6.80
2018-09-25T06:41:39.944Z,6.88
2018-09-25T06:42:39.988Z,6.79
2018-09-25T06:43:40.017Z,6.87
2018-09-25T06:44:40.056Z,6.89
2018-09-25T06:45:40.092Z,6.94
2018-09-25T06:46:40.231Z,6.92
2018-09-25T06:47:40.169Z,6.94
2018-09-25T06:48:40.209Z,7.03
2018-09-25T06:49:40.244Z,7.03
2018-09-25T06:50:40.282Z,7.15
2018-09-25T06:51:40.318Z,7.03
2018-09-25T06:52:40.359Z,6.94
2018-09-25T06:53:40.394Z,7.10
2018-09-25T06:54:40.439Z,6.95
2018-09-25T06:55:40.479Z,7.03
2018-09-25T06:56:40.506Z,7.07
2018-09-25T06:57:40.548Z,7.09
2018-09-25T06:58:40.582Z,7.16
2018-09-25T06:59:40.619Z,7.15
2018-09-25T07:00:40.706Z,7.30
2018-09-25T07:01:40.694Z,7.25
2018-09-25T07:02:40.731Z,7.32
2018-09-25T07:03:40.777Z,7.37
2018-09-25T07:04:40.808Z,7.34
2018-09-25T07:05:40.845Z,7.28
2018-09-25T07:06:40.882Z,7.21
2018-09-25T07:07:40.920Z,7.25
2018-09-25T07:08:40.969Z,7.25
2018-09-25T07:09:41.085Z,7.20
2018-09-25T07:10:41.109Z,7.17
2018-09-25T07:11:41.071Z,7.27
2018-09-25T07:12:41.110Z,7.34
2018-09-25T07:13:41.147Z,7.35
2018-09-25T07:14:41.185Z,7.39
2018-09-25T07:15:41.224Z,7.48
2018-09-25T07:16:41.261Z,7.50
2018-09-25T07:17:41.336Z,7.63
2018-09-25T07:18:41.338Z,7.57
2018-09-25T07:19:41.383Z,7.63
2018-09-25T07:20:41.412Z,7.68
2018-09-25T07:21:41.452Z,7.82
2018-09-25T07:22:41.537Z,7.92
2018-09-25T07:23:41.529Z,8.00
2018-09-25T07:24:41.605Z,8.02
2018-09-25T07:25:41.599Z,8.00
2018-09-25T07:26:41.637Z,8.10
2018-09-25T07:27:41.676Z,8.07
2018-09-25T07:28:41.714Z,8.02
2018-09-25T07:29:41.793Z,8.07
2018-09-25T07:30:41.789Z,8.02
2018-09-25T07:31:41.828Z,8.12
2018-09-25T07:32:41.866Z,8.12
2018-09-25T07:33:41.902Z,8.16
2018-09-25T07:34:42.071Z,8.18
2018-09-25T07:35:41.993Z,8.22
2018-09-25T07:36:42.019Z,8.23
2018-09-25T07:37:42.060Z,8.36
2018-09-25T07:38:42.094Z,8.36
2018-09-25T07:39:42.210Z,8.38
2018-09-25T07:40:42.186Z,8.37
2018-09-25T07:41:42.274Z,8.43
2018-09-25T07:42:42.246Z,8.55
2018-09-25T07:43:42.285Z,8.65
2018-09-25T07:44:42.349Z,8.63
2018-09-25T07:45:42.362Z,8.73
2018-09-25T07:46:42.399Z,8.66
2018-09-25T07:47:42.552Z,8.76
2018-09-25T07:48:42.475Z,8.65
2018-09-25T07:49:42.526Z,8.63
2018-09-25T07:50:42.581Z,8.74
2018-09-25T07:51:42.620Z,8.62
2018-09-25T07:52:42.635Z,8.73
2018-09-25T07:53:42.667Z,8.77
2018-09-25T07:54:42.708Z,8.77
2018-09-25T07:55:42.901Z,8.86
2018-09-25T07:56:42.786Z,8.80
2018-09-25T07:57:42.823Z,8.92
2018-09-25T07:58:42.909Z,9.01
2018-09-25T07:59:42.906Z,9.11
2018-09-25T08:00:42.937Z,9.08
2018-09-25T08:01:43.053Z,9.15
2018-09-25T08:02:43.019Z,9.17
2018-09-25T08:03:43.097Z,9.24
2018-09-25T08:04:43.089Z,9.24
2018-09-25T08:05:43.129Z,9.40
2018-09-25T08:06:43.166Z,9.51
2018-09-25T08:07:43.214Z,9.48
2018-09-25T08:08:43.245Z,9.54
2018-09-25T08:09:43.289Z,9.64
2018-09-25T08:10:43.332Z,9.64
2018-09-25T08:11:43.367Z,9.79
2018-09-25T08:12:43.399Z,9.86
2018-09-25T08:13:43.538Z,9.96
2018-09-25T08:14:43.477Z,9.93
2018-09-25T08:15:43.515Z,9.87
2018-09-25T08:16:43.555Z,9.86
2018-09-25T08:17:43.595Z,9.89
2018-09-25T08:18:43.634Z,9.90
2018-09-25T08:19:43.680Z,9.91
2018-09-25T08:20:43.708Z,9.89
2018-09-25T08:21:43.757Z,9.76
2018-09-25T08:22:43.787Z,9.72
2018-09-25T08:23:43.831Z,9.69
2018-09-25T08:24:43.871Z,9.75
2018-09-25T08:25:43.905Z,9.81
2018-09-25T08:26:43.946Z,9.87
2018-09-25T08:27:43.981Z,9.78
2018-09-25T08:28:44.022Z,9.72
2018-09-25T08:29:44.124Z,9.76
2018-09-25T08:30:44.099Z,9.91
2018-09-25T08:31:44.142Z,9.81
2018-09-25T08:32:44.176Z,9.74
2018-09-25T08:33:44.214Z,9.74
2018-09-25T08:34:44.255Z,9.75
2018-09-25T08:35:44.295Z,9.76
2018-09-25T08:36:44.334Z,9.68
2018-09-25T08:37:44.373Z,9.53
2018-09-25T08:38:44.492Z,9.20
2018-09-25T08:39:44.451Z,9.10
2018-09-25T08:40:44.490Z,8.92
2018-09-25T08:41:44.528Z,8.99
2018-09-25T08:42:44.567Z,8.80
2018-09-25T08:43:44.607Z,8.84
2018-09-25T08:44:44.644Z,8.86
2018-09-25T08:45:44.705Z,8.84
2018-09-25T08:46:44.722Z,8.79
2018-09-25T08:47:44.764Z,8.71
2018-09-25T08:48:44.798Z,8.70
2018-09-25T08:49:44.838Z,8.66
2018-09-25T08:50:44.876Z,8.63
2018-09-25T08:51:44.915Z,8.61
2018-09-25T08:52:44.953Z,8.71
2018-09-25T08:53:44.992Z,8.61
2018-09-25T08:54:45.038Z,8.65
2018-09-25T08:55:45.071Z,8.73
2018-09-25T08:56:45.107Z,8.70
2018-09-25T08:57:45.147Z,8.66
2018-09-25T08:58:45.184Z,8.68
2018-09-25T08:59:45.223Z,8.66
2018-09-25T09:00:45.278Z,8.70
2018-09-25T09:01:45.304Z,8.63
2018-09-25T09:02:45.339Z,8.66
2018-09-25T09:03:45.383Z,8.66
2018-09-25T09:04:45.418Z,8.70
2018-09-25T09:05:45.451Z,8.70
2018-09-25T09:06:45.491Z,8.70
2018-09-25T09:07:45.531Z,8.83
2018-09-25T09:08:45.566Z,8.89
2018-09-25T09:09:45.609Z,8.80
2018-09-25T09:10:45.643Z,8.83
2018-09-25T09:11:45.683Z,8.81
2018-09-25T09:12:45.721Z,8.81
2018-09-25T09:13:45.761Z,8.89
2018-09-25T09:14:45.799Z,8.84
2018-09-25T09:15:45.836Z,8.92
2018-09-25T09:16:45.874Z,8.89
2018-09-25T09:17:45.911Z,8.98
2018-09-25T09:18:45.953Z,8.86
2018-09-25T09:19:46.064Z,8.96
2018-09-25T09:20:46.027Z,8.99
2018-09-25T09:21:46.066Z,8.96
2018-09-25T09:22:46.103Z,8.98
2018-09-25T09:23:46.148Z,9.13
2018-09-25T09:24:46.185Z,9.14
2018-09-25T09:25:46.221Z,9.15
2018-09-25T09:26:46.258Z,9.28
2018-09-25T09:27:46.301Z,9.23
2018-09-25T09:28:46.343Z,9.20
2018-09-25T09:29:46.372Z,9.39
2018-09-25T09:30:46.411Z,9.35
2018-09-25T09:31:46.454Z,9.33
2018-09-25T09:32:46.488Z,9.46
2018-09-25T09:33:46.529Z,9.57
2018-09-25T09:34:46.563Z,9.58
2018-09-25T09:35:46.604Z,9.64
2018-09-25T09:36:46.642Z,9.64
2018-09-25T09:37:46.680Z,9.60
2018-09-25T09:38:46.717Z,9.60
2018-09-25T09:39:46.756Z,9.64
2018-09-25T09:40:46.794Z,9.71
2018-09-25T09:41:47.053Z,9.72
2018-09-25T09:42:46.872Z,9.69
2018-09-25T09:43:46.910Z,9.75
2018-09-25T09:44:46.950Z,9.72
2018-09-25T09:45:46.985Z,9.91
2018-09-25T09:46:47.028Z,9.93
2018-09-25T09:47:47.065Z,10.02
2018-09-25T09:48:47.103Z,10.07
2018-09-25T09:49:47.140Z,10.12
2018-09-25T09:50:47.199Z,10.14
2018-09-25T09:51:47.217Z,10.23
2018-09-25T09:52:47.258Z,10.22
2018-09-25T09:53:47.296Z,10.36
2018-09-25T09:54:47.334Z,10.45
2018-09-25T09:55:47.381Z,10.55
2018-09-25T09:56:47.412Z,10.63
2018-09-25T09:57:47.459Z,10.61
2018-09-25T09:58:47.502Z,10.70
2018-09-25T09:59:47.529Z,10.78
2018-09-25T10:00:47.568Z,10.88
2018-09-25T10:01:47.604Z,10.99
2018-09-25T10:02:47.650Z,11.10
2018-09-25T10:03:47.684Z,11.15
2018-09-25T10:04:47.739Z,11.32
2018-09-25T10:05:47.763Z,11.36
2018-09-25T10:06:47.877Z,11.62
2018-09-25T10:07:47.843Z,11.61
2018-09-25T10:08:47.881Z,11.73
2018-09-25T10:09:47.917Z,11.91
2018-09-25T10:10:47.961Z,11.98
2018-09-25T10:11:48.001Z,12.14
2018-09-25T10:12:48.033Z,12.29
2018-09-25T10:13:48.073Z,12.53
2018-09-25T10:14:48.113Z,12.67
2018-09-25T10:15:48.152Z,12.78
2018-09-25T10:16:48.193Z,12.92
2018-09-25T10:17:48.229Z,13.03
2018-09-25T10:18:48.332Z,13.12
2018-09-25T10:19:48.321Z,13.19
2018-09-25T10:20:48.349Z,13.10
2018-09-25T10:21:48.388Z,13.11
2018-09-25T10:22:48.430Z,13.14
2018-09-25T10:23:48.476Z,13.03
2018-09-25T10:24:48.508Z,13.15
2018-09-25T10:25:48.546Z,13.26
2018-09-25T10:26:48.595Z,13.32
2018-09-25T10:27:48.627Z,13.39
2018-09-25T10:28:48.670Z,13.42
2018-09-25T10:29:48.711Z,13.54
2018-09-25T10:30:48.748Z,13.67
2018-09-25T10:31:48.786Z,13.79
2018-09-25T10:32:48.828Z,13.95
2018-09-25T10:33:48.892Z,14.07
2018-09-25T10:34:48.906Z,14.20
2018-09-25T10:35:48.948Z,14.36
2018-09-25T10:36:48.993Z,14.50
2018-09-25T10:37:49.044Z,14.50
2018-09-25T10:38:49.068Z,14.50
2018-09-25T10:39:49.108Z,14.55
2018-09-25T10:40:49.197Z,14.51
2018-09-25T10:41:49.207Z,14.55
2018-09-25T10:42:49.230Z,14.64
2018-09-25T10:43:49.270Z,14.52
2018-09-25T10:44:49.312Z,14.61
2018-09-25T10:45:49.360Z,14.39
2018-09-25T10:46:49.393Z,14.46
2018-09-25T10:47:49.441Z,14.36
2018-09-25T10:48:49.474Z,14.42
2018-09-25T10:49:49.532Z,14.39
2018-09-25T10:50:49.556Z,14.43
2018-09-25T10:51:49.606Z,14.42
2018-09-25T10:52:49.637Z,14.35
2018-09-25T10:53:49.678Z,14.37
2018-09-25T10:54:49.721Z,14.40
2018-09-25T10:55:49.792Z,14.39
2018-09-25T10:56:49.799Z,14.46
2018-09-25T10:57:49.841Z,14.54
2018-09-25T10:58:49.882Z,14.51
2018-09-25T10:59:49.924Z,14.52
2018-09-25T11:00:49.966Z,14.65
2018-09-25T11:01:50.014Z,14.73
2018-09-25T11:02:50.132Z,14.75
2018-09-25T11:03:50.090Z,14.84
2018-09-25T11:04:50.128Z,14.68
2018-09-25T11:05:50.175Z,14.78
2018-09-25T11:06:50.540Z,14.78
2018-09-25T11:07:50.254Z,14.77
2018-09-25T11:08:50.295Z,14.62
2018-09-25T11:09:50.332Z,14.81
2018-09-25T11:10:50.372Z,14.73
2018-09-25T11:11:50.415Z,14.81
2018-09-25T11:12:50.456Z,14.68
2018-09-25T11:13:50.497Z,14.81
2018-09-25T11:14:50.536Z,14.86
2018-09-25T11:15:50.580Z,14.92
2018-09-25T11:16:50.621Z,14.88
2018-09-25T11:17:50.731Z,15.06
2018-09-25T11:18:50.702Z,14.98
2018-09-25T11:19:50.744Z,15.13
2018-09-25T11:20:50.783Z,15.25
2018-09-25T11:21:50.824Z,15.31
2018-09-25T11:22:50.884Z,15.39
2018-09-25T11:23:50.907Z,15.44
2018-09-25T11:24:50.959Z,15.46
2018-09-25T11:25:50.998Z,15.39
2018-09-25T11:26:51.036Z,15.41
2018-09-25T11:27:51.074Z,15.36
2018-09-25T11:28:51.118Z,15.31
2018-09-25T11:29:51.160Z,15.29
2018-09-25T11:30:51.205Z,15.21
2018-09-25T11:31:51.238Z,15.10
2018-09-25T11:32:51.282Z,14.99
2018-09-25T11:33:51.323Z,15.01
2018-09-25T11:34:51.361Z,15.01
2018-09-25T11:35:51.409Z,15.03
2018-09-25T11:36:51.446Z,15.02
2018-09-25T11:37:51.484Z,15.07
2018-09-25T11:38:51.530Z,14.95
2018-09-25T11:39:51.568Z,14.99
2018-09-25T11:40:51.627Z,14.98
2018-09-25T11:41:51.648Z,15.02
2018-09-25T11:42:51.691Z,15.06
2018-09-25T11:43:51.731Z,15.06
2018-09-25T11:44:51.773Z,14.99
2018-09-25T11:45:51.846Z,14.95
2018-09-25T11:46:52.082Z,14.91
2018-09-25T11:47:51.897Z,14.99
2018-09-25T11:48:51.937Z,15.02
2018-09-25T11:49:52.010Z,15.03
2018-09-25T11:50:52.019Z,15.06
2018-09-25T11:51:52.074Z,15.07
2018-09-25T11:52:52.131Z,15.07
2018-09-25T11:53:52.141Z,14.99
2018-09-25T11:54:52.184Z,14.99
2018-09-25T11:55:52.226Z,15.02
2018-09-25T11:56:52.267Z,15.07
2018-09-25T11:57:52.308Z,15.10
2018-09-25T11:58:52.356Z,15.11
2018-09-25T11:59:52.390Z,15.17
2018-09-25T12:00:52.432Z,15.11
2018-09-25T12:01:52.690Z,15.20
2018-09-25T12:02:52.513Z,15.28
2018-09-25T12:03:52.555Z,15.32
2018-09-25T12:04:52.604Z,15.41
2018-09-25T12:05:52.637Z,15.47
2018-09-25T12:06:52.677Z,15.56
2018-09-25T12:07:52.721Z,15.84
2018-09-25T12:08:52.763Z,15.87
2018-09-25T12:09:52.802Z,16.08
2018-09-25T12:10:52.857Z,16.14
2018-09-25T12:11:52.887Z,16.33
2018-09-25T12:12:52.934Z,16.41
2018-09-25T12:13:53.006Z,16.48
2018-09-25T12:14:53.012Z,16.66
2018-09-25T12:15:53.053Z,16.70
2018-09-25T12:16:53.103Z,16.70
2018-09-25T12:17:53.136Z,16.76
2018-09-25T12:18:53.179Z,16.73
2018-09-25T12:19:53.241Z,16.78
2018-09-25T12:20:53.284Z,16.78
2018-09-25T12:21:53.487Z,16.75
2018-09-25T12:22:53.370Z,16.79
2018-09-25T12:23:53.391Z,16.81
2018-09-25T12:24:53.433Z,16.73
2018-09-25T12:25:53.536Z,16.86
2018-09-25T12:26:53.526Z,16.73
2018-09-25T12:27:53.560Z,16.53
2018-09-25T12:28:53.608Z,16.49
2018-09-25T12:29:53.641Z,16.43
2018-09-25T12:30:53.695Z,16.46
2018-09-25T12:31:53.725Z,16.35
2018-09-25T12:32:53.804Z,16.42
2018-09-25T12:33:53.888Z,16.43
2018-09-25T12:34:53.851Z,16.56
2018-09-25T12:35:53.894Z,16.56
2018-09-25T12:36:53.941Z,16.45
2018-09-25T12:37:54.001Z,16.48
2018-09-25T12:38:54.028Z,16.52
2018-09-25T12:39:54.068Z,16.53
2018-09-25T12:40:54.155Z,16.53
2018-09-25T12:41:54.144Z,16.64
2018-09-25T12:42:54.284Z,16.49
2018-09-25T12:43:54.252Z,16.52
2018-09-25T12:44:54.274Z,16.50
2018-09-25T12:45:54.371Z,16.61
2018-09-25T12:46:54.399Z,16.68
2018-09-25T12:47:54.421Z,16.73
2018-09-25T12:48:54.452Z,16.78
2018-09-25T12:49:54.480Z,16.79
2018-09-25T12:50:54.522Z,16.75
2018-09-25T12:51:54.565Z,16.76
2018-09-25T12:52:54.608Z,16.68
2018-09-25T12:53:54.657Z,16.61
2018-09-25T12:54:54.692Z,16.52
2018-09-25T12:55:54.740Z,16.38
2018-09-25T12:56:54.788Z,16.14
2018-09-25T12:57:54.821Z,16.04
2018-09-25T12:58:54.868Z,16.00
2018-09-25T12:59:54.903Z,15.92
2018-09-25T13:00:54.945Z,15.76
2018-09-25T13:01:54.994Z,15.75
2018-09-25T13:02:55.028Z,15.78
2018-09-25T13:03:55.106Z,15.83
2018-09-25T13:04:55.167Z,15.67
2018-09-25T13:05:55.259Z,15.67
2018-09-25T13:06:55.197Z,15.67
2018-09-25T13:07:55.237Z,15.57
2018-09-25T13:08:55.281Z,15.53
2018-09-25T13:09:55.319Z,15.41
2018-09-25T13:10:55.361Z,15.32
2018-09-25T13:11:55.424Z,15.28